Terminal Aerodrome Forecast
Issued by NWS Mt. Holly, NJ

Current Version | Previous Version | Text Only | Print | Product List | Glossary On
Versions: 1 2 3 4 5 6 7 8 9 10 11 12 13 14 15 16 17 18 19 20 21 22 23 24
000
FTUS41 KPHI 252326
TAFPHL
TAF
KPHL 252326Z 2600/2706 24008KT P6SM BKN200
     FM260300 28004KT P6SM BKN120
     FM260700 36006KT P6SM OVC100
     FM261300 03008KT P6SM BKN200
     FM261800 34008KT P6SM SCT050 BKN250
     FM262200 31006KT P6SM FEW050 SCT250=

USA.gov is the U.S. government's official web portal to all federal, state and local government web resources and services.